createdAt,value
2022-08-08T00:02:30.052Z,2.83
2022-08-08T00:04:55.581Z,2.97
2022-08-08T00:07:33.759Z,3.20
2022-08-08T00:10:11.130Z,3.22
2022-08-08T00:12:48.421Z,3.42
2022-08-08T00:15:55.849Z,2.90
2022-08-08T00:18:24.094Z,2.92
2022-08-08T00:20:57.036Z,3.30
2022-08-08T00:23:43.000Z,2.72
2022-08-08T00:26:26.292Z,3.13
2022-08-08T00:29:03.920Z,2.70
2022-08-08T00:32:15.261Z,3.08
2022-08-08T00:35:04.608Z,3.40
2022-08-08T00:37:47.299Z,2.78
2022-08-08T00:41:12.143Z,2.95
2022-08-08T00:44:02.216Z,2.90
2022-08-08T00:47:19.663Z,3.30
2022-08-08T00:50:40.802Z,2.90
2022-08-08T00:53:20.781Z,2.88
2022-08-08T00:56:47.324Z,3.08
2022-08-08T01:00:05.041Z,3.13
2022-08-08T01:03:58.444Z,2.97
2022-08-08T01:06:27.513Z,3.25
2022-08-08T01:09:49.087Z,2.80
2022-08-08T01:13:23.013Z,2.70
2022-08-08T01:16:38.038Z,2.83
2022-08-08T01:20:02.204Z,2.78
2022-08-08T01:24:06.074Z,2.80
2022-08-08T01:26:27.420Z,3.47
2022-08-08T01:29:35.716Z,3.08
2022-08-08T01:33:03.148Z,3.20
2022-08-08T01:36:23.798Z,3.30
2022-08-08T01:39:27.697Z,3.70
2022-08-08T01:42:10.630Z,3.53
2022-08-08T01:44:55.979Z,3.10
2022-08-08T01:48:16.599Z,3.20
2022-08-08T01:50:59.052Z,3.40
2022-08-08T01:55:26.312Z,3.33
2022-08-08T01:56:47.053Z,3.38
2022-08-08T02:00:01.866Z,3.17
2022-08-08T02:03:55.179Z,3.80
2022-08-08T02:06:31.846Z,3.40
2022-08-08T02:09:18.246Z,3.25
2022-08-08T02:11:58.675Z,3.30
2022-08-08T02:14:50.070Z,3.35
2022-08-08T02:17:42.727Z,3.72
2022-08-08T02:21:02.418Z,3.45
2022-08-08T02:23:23.380Z,3.42
2022-08-08T02:26:10.052Z,3.20
2022-08-08T02:29:00.467Z,2.72
2022-08-08T02:32:00.720Z,3.45
2022-08-08T02:35:12.010Z,3.40
2022-08-08T02:38:29.184Z,2.70
2022-08-08T02:41:58.813Z,3.55
2022-08-08T02:45:21.445Z,3.40
2022-08-08T02:48:27.373Z,3.28
2022-08-08T02:51:55.136Z,3.30
2022-08-08T02:55:03.353Z,3.30
2022-08-08T02:58:04.856Z,3.17
2022-08-08T03:01:20.608Z,3.33
2022-08-08T03:05:03.952Z,3.45
2022-08-08T03:07:59.959Z,3.60
2022-08-08T03:12:01.498Z,3.67
2022-08-08T03:16:04.028Z,3.58
2022-08-08T03:17:52.032Z,3.80
2022-08-08T03:20:46.817Z,3.22
2022-08-08T03:23:24.482Z,3.15
2022-08-08T03:26:08.485Z,3.15
2022-08-08T03:28:42.398Z,3.63
2022-08-08T03:31:26.598Z,2.92
2022-08-08T03:34:00.365Z,3.67
2022-08-08T03:36:31.294Z,3.00
2022-08-08T03:39:14.361Z,3.58
2022-08-08T03:42:28.742Z,3.38
2022-08-08T03:44:38.700Z,3.53
2022-08-08T03:47:20.623Z,3.58
2022-08-08T03:50:00.919Z,3.47
2022-08-08T03:52:37.052Z,3.25
2022-08-08T03:55:56.344Z,3.58
2022-08-08T03:58:31.181Z,3.20
2022-08-08T04:01:23.649Z,3.55
2022-08-08T04:03:57.343Z,3.40
2022-08-08T04:06:29.668Z,3.50
2022-08-08T04:09:08.796Z,3.10
2022-08-08T04:11:57.742Z,3.33
2022-08-08T04:14:45.141Z,3.58
2022-08-08T04:17:22.578Z,3.08
2022-08-08T04:20:04.797Z,3.45
2022-08-08T04:22:34.284Z,3.80
2022-08-08T04:25:05.017Z,3.42
2022-08-08T04:28:02.570Z,3.22
2022-08-08T04:30:23.074Z,3.45
2022-08-08T04:32:54.155Z,3.67
2022-08-08T04:35:26.445Z,3.40
2022-08-08T04:37:57.938Z,3.40
2022-08-08T04:40:34.737Z,3.63
2022-08-08T04:43:05.544Z,3.20
2022-08-08T04:45:41.526Z,3.38
2022-08-08T04:48:11.625Z,3.70
2022-08-08T04:50:44.568Z,3.88
2022-08-08T04:54:27.428Z,3.63
2022-08-08T04:56:08.377Z,3.63
2022-08-08T04:58:39.014Z,3.80
2022-08-08T05:01:10.813Z,3.85
2022-08-08T05:04:09.956Z,3.95
2022-08-08T05:06:39.056Z,3.60
2022-08-08T05:09:08.847Z,3.45
2022-08-08T05:11:40.830Z,3.47
2022-08-08T05:14:14.949Z,3.95
2022-08-08T05:17:00.143Z,4.22
2022-08-08T05:20:11.232Z,4.25
2022-08-08T05:22:21.971Z,4.10
2022-08-08T05:24:52.067Z,4.28
2022-08-08T05:27:23.881Z,4.03
2022-08-08T05:29:56.514Z,4.20
2022-08-08T05:32:36.440Z,3.88
2022-08-08T05:35:09.490Z,4.10
2022-08-08T05:37:52.554Z,3.70
2022-08-08T05:40:30.427Z,4.35
2022-08-08T05:43:38.329Z,4.65
2022-08-08T05:46:03.604Z,4.35
2022-08-08T05:48:36.039Z,3.75
2022-08-08T05:51:14.417Z,4.63
2022-08-08T05:54:24.686Z,3.90
2022-08-08T05:56:42.373Z,4.00
2022-08-08T06:00:00.313Z,4.10
2022-08-08T06:02:34.270Z,3.72
2022-08-08T06:05:06.878Z,3.78
2022-08-08T06:08:01.988Z,3.95
2022-08-08T06:10:34.670Z,3.92
2022-08-08T06:13:04.455Z,3.97
2022-08-08T06:15:50.944Z,3.95
2022-08-08T06:18:30.229Z,4.13
2022-08-08T06:21:03.435Z,4.30
2022-08-08T06:23:52.409Z,4.38
2022-08-08T06:26:43.291Z,4.13
2022-08-08T06:29:48.824Z,4.22
2022-08-08T06:32:15.440Z,4.43
2022-08-08T06:35:11.855Z,3.90
2022-08-08T06:37:46.451Z,4.47
2022-08-08T06:40:21.269Z,4.43
2022-08-08T06:42:56.741Z,4.50
2022-08-08T06:45:34.076Z,4.60
2022-08-08T06:48:04.528Z,4.60
2022-08-08T06:50:39.508Z,4.78
2022-08-08T06:53:13.993Z,5.80
2022-08-08T06:56:00.497Z,6.05
2022-08-08T06:58:33.126Z,5.50
2022-08-08T07:02:11.675Z,4.95
2022-08-08T07:04:37.584Z,4.65
2022-08-08T07:06:54.624Z,4.55
2022-08-08T07:09:45.746Z,5.55
2022-08-08T07:12:24.257Z,5.15
2022-08-08T07:15:05.600Z,5.13
2022-08-08T07:17:56.584Z,5.05
2022-08-08T07:20:32.671Z,4.63
2022-08-08T07:23:08.547Z,4.60
2022-08-08T07:25:54.583Z,4.15
2022-08-08T07:28:31.370Z,4.15
2022-08-08T07:31:04.780Z,3.92
2022-08-08T07:33:38.036Z,3.65
2022-08-08T07:36:23.968Z,3.60
2022-08-08T07:38:54.597Z,4.50
2022-08-08T07:41:26.528Z,4.00
2022-08-08T07:43:59.379Z,4.10
2022-08-08T07:46:30.524Z,4.03
2022-08-08T07:49:05.507Z,3.50
2022-08-08T07:51:52.974Z,3.65
2022-08-08T07:54:33.276Z,3.38
2022-08-08T07:57:16.936Z,3.50
2022-08-08T07:59:57.365Z,3.67
2022-08-08T08:02:38.276Z,2.97
2022-08-08T08:05:19.850Z,3.55
2022-08-08T08:07:54.663Z,3.78
2022-08-08T08:10:33.151Z,3.92
2022-08-08T08:13:25.507Z,3.53
2022-08-08T08:16:17.021Z,3.97
2022-08-08T08:18:56.146Z,3.67
2022-08-08T08:21:35.407Z,4.00
2022-08-08T08:24:49.501Z,3.70
2022-08-08T08:27:22.390Z,3.95
2022-08-08T08:29:57.518Z,3.58
2022-08-08T08:32:32.064Z,4.00
2022-08-08T08:35:08.768Z,3.47
2022-08-08T08:37:59.287Z,4.10
2022-08-08T08:40:29.700Z,3.83
2022-08-08T08:43:02.875Z,4.05
2022-08-08T08:45:32.720Z,3.90
2022-08-08T08:48:04.332Z,4.40
2022-08-08T08:50:40.990Z,4.00
2022-08-08T08:53:28.136Z,4.20
2022-08-08T08:56:18.237Z,3.80
2022-08-08T08:58:56.035Z,4.15
2022-08-08T09:01:42.118Z,4.45
2022-08-08T09:04:31.076Z,4.30
2022-08-08T09:07:13.788Z,3.55
2022-08-08T09:09:55.161Z,4.35
2022-08-08T09:12:30.293Z,4.13
2022-08-08T09:15:01.832Z,3.78
2022-08-08T09:17:42.038Z,4.60
2022-08-08T09:21:57.969Z,4.80
2022-08-08T09:23:17.654Z,4.30
2022-08-08T09:26:00.790Z,4.18
2022-08-08T09:28:38.854Z,4.43
2022-08-08T09:31:42.149Z,4.82
2022-08-08T09:34:32.209Z,4.60
2022-08-08T09:37:57.269Z,4.22
2022-08-08T09:40:01.749Z,4.03
2022-08-08T09:42:44.302Z,4.25
2022-08-08T09:45:55.081Z,4.15
2022-08-08T09:48:21.903Z,4.55
2022-08-08T09:50:58.016Z,4.40
2022-08-08T09:53:56.413Z,4.43
2022-08-08T09:56:25.325Z,4.28
2022-08-08T09:59:07.830Z,4.28
2022-08-08T10:01:58.206Z,4.40
2022-08-08T10:04:41.555Z,4.43
2022-08-08T10:07:15.977Z,4.30
2022-08-08T10:10:00.015Z,4.13
2022-08-08T10:12:53.004Z,3.95
2022-08-08T10:15:24.314Z,3.90
2022-08-08T10:18:05.900Z,3.70
2022-08-08T10:20:57.783Z,4.10
2022-08-08T10:23:44.052Z,3.70
2022-08-08T10:26:29.946Z,4.32
2022-08-08T10:29:05.786Z,3.65
2022-08-08T10:31:53.205Z,3.90
2022-08-08T10:34:25.261Z,2.80
2022-08-08T10:36:59.724Z,3.15
2022-08-08T10:39:43.087Z,3.40
2022-08-08T10:42:19.428Z,2.88
2022-08-08T10:44:50.302Z,3.38
2022-08-08T10:47:20.760Z,2.88
2022-08-08T10:50:00.416Z,3.45
2022-08-08T10:52:34.196Z,2.88
2022-08-08T10:55:06.091Z,2.80
2022-08-08T10:57:50.355Z,2.80
2022-08-08T11:00:25.745Z,2.65
2022-08-08T11:02:54.246Z,2.75
2022-08-08T11:05:23.155Z,2.72
2022-08-08T11:08:38.004Z,2.55
2022-08-08T11:10:43.115Z,2.63
2022-08-08T11:13:28.757Z,2.53
2022-08-08T11:16:01.030Z,2.42
2022-08-08T11:18:37.600Z,2.40
2022-08-08T11:21:10.615Z,2.80
2022-08-08T11:24:01.668Z,2.70
2022-08-08T11:26:32.010Z,2.72
2022-08-08T11:29:02.703Z,2.55
2022-08-08T11:31:39.625Z,2.42
2022-08-08T11:34:25.682Z,2.55
2022-08-08T11:37:15.602Z,2.47
2022-08-08T11:39:57.558Z,2.20
2022-08-08T11:42:26.789Z,2.42
2022-08-08T11:44:56.265Z,2.35
2022-08-08T11:47:24.992Z,2.30
2022-08-08T11:50:10.528Z,2.80
2022-08-08T11:52:45.230Z,2.50
2022-08-08T11:55:18.843Z,2.20
2022-08-08T11:57:51.519Z,2.55
2022-08-08T12:00:21.475Z,2.10
2022-08-08T12:02:54.305Z,2.20
2022-08-08T12:05:33.698Z,2.35
2022-08-08T12:08:02.256Z,2.50
2022-08-08T12:10:36.441Z,2.60
2022-08-08T12:13:06.770Z,2.38
2022-08-08T12:15:42.280Z,2.60
2022-08-08T12:18:20.611Z,2.00
2022-08-08T12:20:49.783Z,2.40
2022-08-08T12:23:30.502Z,2.13
2022-08-08T12:26:17.317Z,2.40
2022-08-08T12:28:57.200Z,2.80
2022-08-08T12:31:39.403Z,2.42
2022-08-08T12:34:36.058Z,2.58
2022-08-08T12:37:08.143Z,2.10
2022-08-08T12:39:59.860Z,2.20
2022-08-08T12:42:27.466Z,1.88
2022-08-08T12:45:59.712Z,2.42
2022-08-08T12:48:10.057Z,2.47
2022-08-08T12:50:54.610Z,2.00
2022-08-08T12:53:35.234Z,2.72
2022-08-08T12:56:17.698Z,2.35
2022-08-08T12:58:54.601Z,2.45
2022-08-08T13:01:36.908Z,2.53
2022-08-08T13:04:19.402Z,2.30
2022-08-08T13:06:57.105Z,2.40
2022-08-08T13:10:00.778Z,2.03
2022-08-08T13:12:29.758Z,2.58
2022-08-08T13:15:03.533Z,2.58
2022-08-08T13:18:08.594Z,2.30
2022-08-08T13:20:23.739Z,2.17
2022-08-08T13:23:30.274Z,2.05
2022-08-08T13:25:58.774Z,2.30
2022-08-08T13:28:32.427Z,2.30
2022-08-08T13:31:03.887Z,2.20
2022-08-08T13:33:42.740Z,2.10
2022-08-08T13:36:12.064Z,2.08
2022-08-08T13:38:40.947Z,2.05
2022-08-08T13:41:16.085Z,2.10
2022-08-08T13:43:46.846Z,2.10
2022-08-08T13:46:28.331Z,1.80
2022-08-08T13:50:33.901Z,2.40
2022-08-08T13:52:00.855Z,2.13
2022-08-08T13:54:31.830Z,2.17
2022-08-08T13:57:12.523Z,1.95
2022-08-08T13:59:48.241Z,1.80
2022-08-08T14:02:21.186Z,1.98
2022-08-08T14:04:54.395Z,2.25
2022-08-08T14:07:25.977Z,1.98
2022-08-08T14:10:04.427Z,2.33
2022-08-08T14:12:39.686Z,2.05
2022-08-08T14:15:23.459Z,2.10
2022-08-08T14:18:36.111Z,1.95
2022-08-08T14:20:56.883Z,1.42
2022-08-08T14:24:03.857Z,1.80
2022-08-08T14:26:28.392Z,1.70
2022-08-08T14:28:58.191Z,1.65
2022-08-08T14:32:05.877Z,1.67
2022-08-08T14:34:19.374Z,1.60
2022-08-08T14:36:54.602Z,1.50
2022-08-08T14:39:25.049Z,1.63
2022-08-08T14:42:10.852Z,1.55
2022-08-08T14:44:39.415Z,1.70
2022-08-08T14:47:16.994Z,1.50
2022-08-08T14:50:06.309Z,1.85
2022-08-08T14:52:54.237Z,1.60
2022-08-08T14:55:41.732Z,1.67
2022-08-08T14:58:16.323Z,1.77
2022-08-08T15:00:49.884Z,1.45
2022-08-08T15:03:18.462Z,1.70
2022-08-08T15:05:53.957Z,2.10
2022-08-08T15:08:34.347Z,1.55
2022-08-08T15:11:04.725Z,1.90
2022-08-08T15:13:39.806Z,1.88
2022-08-08T15:16:12.029Z,1.75
2022-08-08T15:18:50.015Z,1.63
2022-08-08T15:21:21.160Z,1.63
2022-08-08T15:23:50.840Z,1.70
2022-08-08T15:26:20.202Z,1.63
2022-08-08T15:28:53.082Z,1.75
2022-08-08T15:31:57.667Z,1.67
2022-08-08T15:34:29.160Z,1.50
2022-08-08T15:36:59.308Z,1.67
2022-08-08T15:39:31.230Z,1.38
2022-08-08T15:41:59.670Z,1.40
2022-08-08T15:44:29.779Z,1.42
2022-08-08T15:46:59.571Z,1.40
2022-08-08T15:49:29.464Z,1.45
2022-08-08T15:52:05.796Z,1.70
2022-08-08T15:54:38.298Z,1.40
2022-08-08T15:57:09.290Z,1.90
2022-08-08T16:00:05.912Z,1.40
2022-08-08T16:02:30.329Z,1.60
2022-08-08T16:04:59.921Z,1.70
2022-08-08T16:07:50.910Z,1.73
2022-08-08T16:13:27.449Z,1.38
2022-08-08T16:13:30.799Z,1.70
2022-08-08T16:15:58.559Z,1.42
2022-08-08T16:18:35.106Z,1.45
2022-08-08T16:21:10.313Z,1.50
2022-08-08T16:23:55.778Z,1.90
2022-08-08T16:26:34.147Z,1.60
2022-08-08T16:29:06.988Z,1.70
2022-08-08T16:31:37.354Z,1.70
2022-08-08T16:34:06.732Z,1.40
2022-08-08T16:36:37.437Z,1.77
2022-08-08T16:39:16.926Z,1.67
2022-08-08T16:42:00.966Z,2.15
2022-08-08T16:44:34.248Z,1.98
2022-08-08T16:47:21.819Z,1.55
2022-08-08T16:50:01.456Z,1.52
2022-08-08T16:55:06.258Z,1.45
2022-08-08T16:55:52.854Z,1.70
2022-08-08T16:58:15.893Z,1.75
2022-08-08T17:00:48.641Z,1.67
2022-08-08T17:03:18.106Z,1.65
2022-08-08T17:05:54.190Z,1.83
2022-08-08T17:08:23.692Z,1.60
2022-08-08T17:10:58.796Z,1.40
2022-08-08T17:13:41.134Z,1.60
2022-08-08T17:16:22.085Z,1.70
2022-08-08T17:18:52.953Z,1.52
2022-08-08T17:21:21.527Z,1.48
2022-08-08T17:24:00.941Z,1.38
2022-08-08T17:26:31.899Z,1.83
2022-08-08T17:29:04.525Z,1.42
2022-08-08T17:31:44.517Z,1.60
2022-08-08T17:34:36.122Z,1.52
2022-08-08T17:37:06.722Z,1.48
2022-08-08T17:40:04.569Z,1.67
2022-08-08T17:42:26.901Z,1.25
2022-08-08T17:44:54.953Z,1.80
2022-08-08T17:47:28.218Z,1.52
2022-08-08T17:50:00.722Z,1.50
2022-08-08T17:52:30.892Z,1.85
2022-08-08T17:54:59.263Z,1.50
2022-08-08T17:57:28.822Z,1.40
2022-08-08T18:00:03.322Z,1.80
2022-08-08T18:02:32.244Z,1.40
2022-08-08T18:05:04.791Z,1.48
2022-08-08T18:08:03.284Z,1.70
2022-08-08T18:10:31.007Z,2.58
2022-08-08T18:13:04.062Z,1.80
2022-08-08T18:15:35.578Z,1.83
2022-08-08T18:18:09.139Z,1.63
2022-08-08T18:20:54.817Z,1.83
2022-08-08T18:23:27.479Z,1.45
2022-08-08T18:26:01.521Z,1.38
2022-08-08T18:28:34.862Z,1.67
2022-08-08T18:31:21.765Z,1.70
2022-08-08T18:34:25.292Z,1.67
2022-08-08T18:36:37.819Z,1.50
2022-08-08T18:39:07.232Z,1.40
2022-08-08T18:41:51.551Z,1.50
2022-08-08T18:44:28.831Z,1.55
2022-08-08T18:46:58.132Z,1.52
2022-08-08T18:49:32.324Z,1.77
2022-08-08T18:52:22.104Z,1.50
2022-08-08T18:54:59.288Z,1.67
2022-08-08T18:57:33.481Z,1.40
2022-08-08T19:00:15.750Z,1.58
2022-08-08T19:02:48.313Z,1.63
2022-08-08T19:05:31.737Z,1.77
2022-08-08T19:08:03.027Z,1.60
2022-08-08T19:10:32.275Z,1.65
2022-08-08T19:13:03.205Z,1.42
2022-08-08T19:15:34.171Z,1.65
2022-08-08T19:18:30.816Z,1.70
2022-08-08T19:20:52.138Z,1.67
2022-08-08T19:23:21.645Z,1.77
2022-08-08T19:26:26.975Z,1.65
2022-08-08T19:28:41.341Z,1.83
2022-08-08T19:31:13.148Z,1.80
2022-08-08T19:34:04.272Z,1.60
2022-08-08T19:36:34.853Z,1.55
2022-08-08T19:39:02.877Z,1.10
2022-08-08T19:41:33.577Z,1.60
2022-08-08T19:44:03.742Z,1.50
2022-08-08T19:46:34.008Z,1.60
2022-08-08T19:49:03.015Z,1.33
2022-08-08T19:51:34.581Z,1.52
2022-08-08T19:54:09.543Z,1.40
2022-08-08T19:56:39.864Z,1.20
2022-08-08T19:59:10.113Z,1.20
2022-08-08T20:02:01.422Z,1.40
2022-08-08T20:04:29.856Z,1.40
2022-08-08T20:06:57.967Z,1.60
2022-08-08T20:09:36.337Z,1.52
2022-08-08T20:12:14.019Z,1.20
2022-08-08T20:14:51.824Z,1.65
2022-08-08T20:17:26.821Z,1.77
2022-08-08T20:19:57.289Z,1.38
2022-08-08T20:22:30.535Z,1.58
2022-08-08T20:25:00.277Z,1.58
2022-08-08T20:27:32.863Z,1.30
2022-08-08T20:30:52.845Z,1.45
2022-08-08T20:33:02.397Z,1.60
2022-08-08T20:35:32.639Z,1.50
2022-08-08T20:38:18.897Z,1.73
2022-08-08T20:40:57.709Z,1.48
2022-08-08T20:43:43.490Z,1.73
2022-08-08T20:46:14.716Z,1.50
2022-08-08T20:48:44.184Z,1.73
2022-08-08T20:51:12.834Z,1.65
2022-08-08T20:53:58.822Z,1.45
2022-08-08T20:56:35.517Z,1.13
2022-08-08T20:59:06.439Z,1.35
2022-08-08T21:02:05.583Z,1.50
2022-08-08T21:04:27.445Z,1.30
2022-08-08T21:06:56.107Z,1.67
2022-08-08T21:09:24.210Z,1.20
2022-08-08T21:12:03.486Z,1.50
2022-08-08T21:14:34.703Z,1.42
2022-08-08T21:17:06.092Z,1.30
2022-08-08T21:19:45.164Z,1.58
2022-08-08T21:22:16.067Z,1.70
2022-08-08T21:24:52.642Z,1.75
2022-08-08T21:27:38.853Z,1.60
2022-08-08T21:30:18.791Z,1.50
2022-08-08T21:32:51.578Z,1.20
2022-08-08T21:36:16.716Z,1.67
2022-08-08T21:38:17.133Z,1.52
2022-08-08T21:40:55.101Z,1.77
2022-08-08T21:43:33.158Z,1.45
2022-08-08T21:48:05.362Z,1.50
2022-08-08T21:48:51.631Z,1.65
2022-08-08T21:54:23.379Z,1.60
2022-08-08T21:54:31.361Z,1.35
2022-08-08T21:57:00.837Z,1.48
2022-08-08T22:00:02.986Z,1.33
2022-08-08T22:02:19.605Z,1.42
2022-08-08T22:04:52.684Z,1.58
2022-08-08T22:07:26.006Z,1.65
2022-08-08T22:10:03.006Z,1.63
2022-08-08T22:12:38.836Z,1.75
2022-08-08T22:15:08.439Z,1.75
2022-08-08T22:17:41.555Z,1.50
2022-08-08T22:20:23.573Z,1.48
2022-08-08T22:22:53.752Z,1.60
2022-08-08T22:25:25.724Z,1.65
2022-08-08T22:28:03.590Z,1.80
2022-08-08T22:30:33.486Z,1.58
2022-08-08T22:33:01.980Z,1.42
2022-08-08T22:36:05.031Z,1.67
2022-08-08T22:38:20.728Z,1.90
2022-08-08T22:40:49.932Z,1.70
2022-08-08T22:43:18.870Z,2.00
2022-08-08T22:45:52.669Z,1.45
2022-08-08T22:48:21.673Z,1.65
2022-08-08T22:50:51.048Z,2.03
2022-08-08T22:54:34.177Z,1.50
2022-08-08T22:56:08.990Z,1.50
2022-08-08T22:58:38.065Z,1.80
2022-08-08T23:02:01.639Z,1.67
2022-08-08T23:03:56.612Z,1.70
2022-08-08T23:06:25.448Z,1.80
2022-08-08T23:09:00.115Z,1.60
2022-08-08T23:11:31.372Z,1.50
2022-08-08T23:14:17.975Z,1.48
2022-08-08T23:16:57.737Z,1.80
2022-08-08T23:19:27.927Z,1.63
2022-08-08T23:22:01.394Z,1.85
2022-08-08T23:24:36.761Z,1.70
2022-08-08T23:27:10.116Z,1.50
2022-08-08T23:29:40.558Z,1.90
2022-08-08T23:32:10.955Z,1.63
2022-08-08T23:34:39.849Z,1.58
2022-08-08T23:37:17.728Z,1.80
2022-08-08T23:39:55.374Z,1.90
2022-08-08T23:42:25.972Z,1.83
2022-08-08T23:44:55.718Z,1.58
2022-08-08T23:49:02.868Z,2.10
2022-08-08T23:50:30.021Z,2.53
2022-08-08T23:52:58.922Z,1.90
2022-08-08T23:55:33.299Z,2.00
2022-08-08T23:58:09.987Z,1.90
